createdAt,value
2018-12-31T12:11:58.810Z,6.99
2018-12-31T12:14:31.835Z,6.99
2018-12-31T12:17:03.990Z,7.08
2018-12-31T12:19:37.034Z,7.03
2018-12-31T12:22:09.197Z,7.09
2018-12-31T12:24:42.386Z,7.07
2018-12-31T12:27:14.746Z,7.10
2018-12-31T12:29:46.894Z,7.11
2018-12-31T12:32:19.820Z,7.17
2018-12-31T12:34:59.306Z,7.22
2018-12-31T12:37:31.769Z,7.29
2018-12-31T12:40:08.410Z,7.32
2018-12-31T12:42:42.998Z,7.36
2018-12-31T12:45:15.548Z,7.31
2018-12-31T12:47:47.542Z,7.32
2018-12-31T12:50:20.004Z,7.25
2018-12-31T12:52:59.554Z,7.31
2018-12-31T12:55:31.927Z,7.27
2018-12-31T12:58:04.423Z,7.28
2018-12-31T13:00:38.517Z,7.32
2018-12-31T13:03:17.495Z,7.34
2018-12-31T13:10:35.855Z,7.37
2018-12-31T13:13:08.055Z,7.32
2018-12-31T13:15:57.475Z,7.30
2018-12-31T13:18:30.092Z,7.35
2018-12-31T13:21:01.902Z,7.29
2018-12-31T13:23:34.410Z,7.28
2018-12-31T13:26:06.801Z,7.29
2018-12-31T13:28:39.311Z,7.29
2018-12-31T13:31:12.012Z,7.27
2018-12-31T13:33:48.282Z,7.16
2018-12-31T13:36:20.743Z,7.25
2018-12-31T13:38:54.009Z,7.29
2018-12-31T13:41:26.197Z,7.30
2018-12-31T13:43:58.632Z,7.36
2018-12-31T13:46:31.795Z,7.43
2018-12-31T13:49:03.903Z,7.44
2018-12-31T13:51:38.540Z,7.46
2018-12-31T13:54:10.938Z,7.57
2018-12-31T13:56:45.022Z,7.65
2018-12-31T13:59:17.878Z,7.76
2018-12-31T14:01:50.746Z,7.79
2018-12-31T14:04:22.990Z,7.82
2018-12-31T14:06:54.939Z,7.87
2018-12-31T14:09:27.588Z,7.79
2018-12-31T14:12:00.148Z,7.80
2018-12-31T14:14:32.528Z,7.73
2018-12-31T14:17:05.990Z,7.72
2018-12-31T14:19:43.261Z,7.70
2018-12-31T14:22:16.984Z,7.73
2018-12-31T14:24:50.814Z,7.70
2018-12-31T14:27:25.820Z,7.67
2018-12-31T14:29:58.800Z,7.69
2018-12-31T14:32:34.093Z,7.66
2018-12-31T14:35:07.702Z,7.63
2018-12-31T14:37:40.925Z,7.59
2018-12-31T14:40:13.278Z,7.59
2018-12-31T14:42:45.201Z,7.65
2018-12-31T14:45:17.954Z,7.66
2018-12-31T14:47:50.091Z,7.66
2018-12-31T14:50:22.371Z,7.69
2018-12-31T14:52:54.757Z,7.71
2018-12-31T14:55:27.417Z,7.66
2018-12-31T14:58:01.412Z,7.63
2018-12-31T15:00:33.788Z,7.58
2018-12-31T15:03:06.326Z,7.62
2018-12-31T15:05:38.114Z,7.58
2018-12-31T15:08:10.787Z,7.53
2018-12-31T15:10:43.116Z,7.55
2018-12-31T15:13:14.922Z,7.51
2018-12-31T15:15:47.281Z,7.52
2018-12-31T15:18:19.931Z,7.50
2018-12-31T15:20:51.712Z,7.54
2018-12-31T15:23:24.988Z,7.47
2018-12-31T15:25:58.680Z,7.42
2018-12-31T15:28:31.453Z,7.41
2018-12-31T15:31:03.247Z,7.35
2018-12-31T15:33:35.709Z,7.36
2018-12-31T15:36:08.056Z,7.28
2018-12-31T15:38:40.796Z,7.42
2018-12-31T15:41:12.691Z,7.40
2018-12-31T15:43:45.479Z,7.38
2018-12-31T15:46:20.445Z,7.35
2018-12-31T15:48:53.360Z,7.31
2018-12-31T15:51:28.513Z,7.34
2018-12-31T15:54:01.493Z,7.30
2018-12-31T15:56:33.612Z,7.25
2018-12-31T15:59:06.000Z,7.26
2018-12-31T16:01:38.440Z,7.27
2018-12-31T16:04:10.935Z,7.29
2018-12-31T16:06:43.690Z,7.28
2018-12-31T16:09:15.836Z,7.22
2018-12-31T16:11:48.194Z,7.19
2018-12-31T16:14:20.612Z,7.16
2018-12-31T16:16:52.977Z,7.20
2018-12-31T16:19:25.373Z,7.18
2018-12-31T16:21:57.997Z,7.14
2018-12-31T16:24:30.257Z,7.14
2018-12-31T16:27:03.596Z,7.17
2018-12-31T16:29:37.374Z,7.18
2018-12-31T16:32:09.729Z,7.18
2018-12-31T16:34:42.113Z,7.18
2018-12-31T16:37:14.580Z,7.16
2018-12-31T16:39:47.383Z,7.18
2018-12-31T16:42:19.452Z,7.15
2018-12-31T16:44:51.839Z,7.12
2018-12-31T16:47:24.239Z,7.11
2018-12-31T16:49:56.979Z,7.16
2018-12-31T16:52:30.260Z,7.14
2018-12-31T16:55:03.116Z,7.11
2018-12-31T16:57:35.317Z,7.10
2018-12-31T17:00:08.381Z,7.15
2018-12-31T17:02:40.838Z,7.13
2018-12-31T17:05:13.203Z,7.09
2018-12-31T17:07:45.399Z,7.12
2018-12-31T17:10:17.626Z,7.07
2018-12-31T17:12:49.902Z,7.06
2018-12-31T17:15:22.429Z,7.02
2018-12-31T17:17:54.826Z,7.00
2018-12-31T17:20:26.637Z,7.04
2018-12-31T17:22:59.048Z,7.01
2018-12-31T17:25:31.412Z,7.01
2018-12-31T17:28:04.336Z,6.99
2018-12-31T17:30:36.558Z,6.96
2018-12-31T17:33:08.357Z,6.97
2018-12-31T17:35:43.087Z,6.93
2018-12-31T17:38:16.608Z,6.94
2018-12-31T17:40:47.488Z,6.92
2018-12-31T17:43:19.223Z,6.90
2018-12-31T17:45:51.924Z,6.91
2018-12-31T17:48:24.128Z,6.87
2018-12-31T17:50:56.180Z,6.88
2018-12-31T17:53:28.832Z,6.88
2018-12-31T17:56:01.179Z,6.87
2018-12-31T17:58:36.452Z,6.87
2018-12-31T18:01:09.271Z,6.85
2018-12-31T18:03:41.385Z,6.86
2018-12-31T18:06:13.840Z,6.85
2018-12-31T18:08:46.533Z,6.84
2018-12-31T18:11:24.011Z,6.81
2018-12-31T18:13:56.488Z,6.84
2018-12-31T18:16:28.845Z,6.81
2018-12-31T18:19:01.199Z,6.80
2018-12-31T18:21:33.635Z,6.83
2018-12-31T18:24:06.008Z,6.81
2018-12-31T18:26:38.387Z,6.79
2018-12-31T18:29:11.150Z,6.81
2018-12-31T18:31:49.464Z,6.82
2018-12-31T18:34:40.170Z,6.80
2018-12-31T18:37:30.791Z,6.79
2018-12-31T18:40:22.321Z,6.76
2018-12-31T18:43:12.826Z,6.75
2018-12-31T18:46:03.301Z,6.75
2018-12-31T18:48:54.263Z,6.76
2018-12-31T18:51:45.042Z,6.76
2018-12-31T18:54:35.447Z,6.72
2018-12-31T18:57:26.041Z,6.70
2018-12-31T19:00:16.711Z,6.69
2018-12-31T19:03:07.369Z,6.71
2018-12-31T19:05:58.443Z,6.68
2018-12-31T19:08:48.907Z,6.66
2018-12-31T19:11:39.414Z,6.68
2018-12-31T19:14:30.340Z,6.64
2018-12-31T19:17:20.743Z,6.61
2018-12-31T19:20:11.556Z,6.63
2018-12-31T19:23:02.667Z,6.62
2018-12-31T19:25:53.441Z,6.61
2018-12-31T19:28:44.420Z,6.59
2018-12-31T19:31:35.085Z,6.60
2018-12-31T19:34:26.073Z,6.61
2018-12-31T19:37:16.639Z,6.60
2018-12-31T19:40:07.347Z,6.60
2018-12-31T19:42:58.259Z,6.62
2018-12-31T19:45:48.947Z,6.63
2018-12-31T19:48:39.929Z,6.61
2018-12-31T19:51:30.432Z,6.61
2018-12-31T19:54:20.875Z,6.62
2018-12-31T19:57:11.254Z,6.59
2018-12-31T20:00:01.826Z,6.62
2018-12-31T20:02:52.338Z,6.59
2018-12-31T20:05:43.071Z,6.61
2018-12-31T20:08:36.674Z,6.60
2018-12-31T20:11:27.163Z,6.62
2018-12-31T20:14:17.735Z,6.63
2018-12-31T20:17:08.312Z,6.60
2018-12-31T20:19:58.807Z,6.61
2018-12-31T20:22:49.688Z,6.61
2018-12-31T20:25:40.519Z,6.61
2018-12-31T20:28:31.241Z,6.59
2018-12-31T20:31:22.048Z,6.57
2018-12-31T20:34:12.516Z,6.60
2018-12-31T20:37:02.900Z,6.55
2018-12-31T20:39:53.178Z,6.56
2018-12-31T20:42:43.847Z,6.56
2018-12-31T20:45:34.257Z,6.55
2018-12-31T20:48:24.951Z,6.53
2018-12-31T20:51:15.620Z,6.49
2018-12-31T20:54:06.198Z,6.54
2018-12-31T20:56:56.791Z,6.51
2018-12-31T20:59:39.010Z,6.53
2018-12-31T21:02:10.894Z,6.48
2018-12-31T21:04:43.351Z,6.52
2018-12-31T21:07:15.856Z,6.50
2018-12-31T21:09:48.240Z,6.49
2018-12-31T21:12:20.647Z,6.49
2018-12-31T21:14:53.046Z,6.53
2018-12-31T21:17:25.466Z,6.54
2018-12-31T21:19:57.872Z,6.56
2018-12-31T21:22:30.262Z,6.55
2018-12-31T21:25:02.638Z,6.51
2018-12-31T21:27:35.138Z,6.50
2018-12-31T21:30:10.690Z,6.52
2018-12-31T21:32:43.081Z,6.58
2018-12-31T21:35:15.711Z,6.55
2018-12-31T21:37:47.987Z,6.60
2018-12-31T21:40:20.383Z,6.54
2018-12-31T21:42:52.797Z,6.57
2018-12-31T21:45:25.193Z,6.57
2018-12-31T21:47:57.426Z,6.58
2018-12-31T21:50:29.795Z,6.57
2018-12-31T21:53:02.655Z,6.57
2018-12-31T21:55:34.842Z,6.57
2018-12-31T21:58:07.286Z,6.59
2018-12-31T22:00:39.862Z,6.59
2018-12-31T22:03:11.700Z,6.59
2018-12-31T22:05:44.105Z,6.58
2018-12-31T22:08:16.532Z,6.57
2018-12-31T22:10:48.943Z,6.58
2018-12-31T22:13:21.515Z,6.60
2018-12-31T22:15:53.874Z,6.59
2018-12-31T22:18:26.392Z,6.58
2018-12-31T22:20:58.795Z,6.59
2018-12-31T22:23:31.219Z,6.60
2018-12-31T22:26:03.576Z,6.59
2018-12-31T22:28:37.051Z,6.58
2018-12-31T22:31:07.932Z,6.60
2018-12-31T22:33:39.665Z,6.59
2018-12-31T22:36:12.073Z,6.60
2018-12-31T22:38:44.711Z,6.58
2018-12-31T22:41:16.532Z,6.58
2018-12-31T22:43:49.071Z,6.57
2018-12-31T22:46:21.468Z,6.56
2018-12-31T22:48:53.851Z,6.57
2018-12-31T22:51:26.429Z,6.56
2018-12-31T22:53:58.860Z,6.56
2018-12-31T22:56:31.665Z,6.56
2018-12-31T22:59:03.908Z,6.55
2018-12-31T23:01:36.247Z,6.54
2018-12-31T23:04:08.641Z,6.55
2018-12-31T23:06:42.820Z,6.53
2018-12-31T23:09:17.155Z,6.53
2018-12-31T23:11:49.685Z,6.52
2018-12-31T23:14:22.183Z,6.53
2018-12-31T23:17:03.789Z,6.53
2018-12-31T23:19:41.667Z,6.52
2018-12-31T23:22:10.821Z,6.52
2018-12-31T23:24:43.288Z,6.52
2018-12-31T23:27:15.811Z,6.52
2018-12-31T23:29:48.252Z,6.51
2018-12-31T23:32:20.713Z,6.52
2018-12-31T23:34:53.398Z,6.52
2018-12-31T23:37:25.897Z,6.50
2018-12-31T23:39:58.330Z,6.49
2018-12-31T23:42:30.811Z,6.49
2018-12-31T23:45:03.425Z,6.50
2018-12-31T23:47:35.840Z,6.48
2018-12-31T23:50:10.880Z,6.50
2018-12-31T23:52:45.330Z,6.51
2018-12-31T23:55:17.741Z,6.51
2018-12-31T23:57:50.133Z,6.46
